Herald, CA (95638)

10:01 PM PDT on August 29, 2016 (GMT -0700)
Rancho Seco Park | | Change Station

Elev 174 ft 38.35 °N, 121.12 °W | Updated 4 seconds ago

Scattered Clouds
Scattered Clouds
68.9 °F
Feels Like 68.9 °F
N
1.6
Wind Variable Wind from WNW
Gusts 1.6 mph

Today
High -- | Low -- °F
--% Chance of Precip.
Yesterday
High -- | Low -- °F
Precip. -- in
Pressure 29.96 in
Visibility 10.0 miles
Clouds Scattered Clouds 16000 ft
Dew Point 53 °F
Humidity 56%
Rainfall in
Snow Depth Not available.
6:31 AM 7:37 PM
Waning Crescent, 5% visible
METAR KMHR 300445Z 12005KT 10SM SCT160 17/10 A2996
Pressure 29.96 in
Visibility 10.0 miles
Clouds Scattered Clouds 16000 ft
Dew Point 53 °F
Humidity 56%
Rainfall in
Snow Depth Not available.
6:31 AM 7:37 PM
Waning Crescent, 5% visible
METAR KMHR 300445Z 12005KT 10SM SCT160 17/10 A2996

10-Day Weather Forecast

Almanac

Astronomy

Aug. 29, 2016 Rise Set
Actual Time
Civil Twilight
Nautical Twilight
Astronomical Twilight
Moon
Length of Visible Light
Length of Day
Tomorrow will be .
, % of the Moon is Illuminated

Today's Extremes

State Highs State Lows

Community

WunderPhotos

Upload Photos

1,935,791 photos uploaded!

WunderBlog® & News

Nearby

Air Quality

  Air Quality AQ Index Pollutant
Not available.

Snow Depth

Station Depth Elevation

Earthquake Activity

City Distance Mag. Time & Date
Minimum magnitude displayed is 2.5.

Coastal Water Temperatures

Place Temperature

Stations

Nearby Weather Stations

Station Location Temp. Windchill Dew Point Humidity Wind Precip. Elev Updated Type
                   

Watches & Warnings

There are currently no watches in effect.